< < Back
Terminal Aerodrome Forecast


Current Version              Previous Versions:   1  2  3  4  5  6  7  8  9  

Terminal Aerodrome Forecast

388
FTUS42 KMLB 141726
TAFDAB
TAF
KDAB 141726Z 1418/1518 06010KT P6SM BKN040
     FM150100 10005KT P6SM BKN040
     FM151200 11004KT P6SM OVC050
     FM151400 12010G16KT P6SM OVC050
     FM151600 13014KT P6SM BKN050=

Latest METAR

760
SAUS80 KWBC 142100 CCA
MTRDAB
METAR KDAB 142053Z 08008KT 10SM FEW035 FEW045 BKN250 18/08 A3024 RMK AO2
SLP239 T01830078 56015 $


USA.gov is the U.S. government's official web portal to all federal, state and local government web resources and services.